sensor_id;sensor_type;location;lat;lon;timestamp;pressure;altitude;pressure_sealevel;temperature;humidity
62510;BME280;48558;48.242;11.654;2023-02-12T00:03:00;98098.06;;;3.94;100.00
62510;BME280;48558;48.242;11.654;2023-02-12T00:07:13;98109.84;;;3.98;100.00
62510;BME280;48558;48.242;11.654;2023-02-12T00:11:27;98107.09;;;3.98;100.00
62510;BME280;48558;48.242;11.654;2023-02-12T00:15:41;98092.84;;;3.79;100.00
62510;BME280;48558;48.242;11.654;2023-02-12T00:19:54;98103.59;;;3.98;100.00
62510;BME280;48558;48.242;11.654;2023-02-12T00:24:17;98098.56;;;4.03;100.00
62510;BME280;48558;48.242;11.654;2023-02-12T00:28:29;98110.63;;;3.99;100.00
62510;BME280;48558;48.242;11.654;2023-02-12T00:32:44;98111.41;;;3.99;100.00
62510;BME280;48558;48.242;11.654;2023-02-12T00:37:07;98111.41;;;3.99;100.00
62510;BME280;48558;48.242;11.654;2023-02-12T00:41:20;98115.44;;;4.12;100.00
62510;BME280;48558;48.242;11.654;2023-02-12T00:45:33;98109.41;;;3.96;100.00
62510;BME280;48558;48.242;11.654;2023-02-12T00:49:45;98120.69;;;3.91;100.00
62510;BME280;48558;48.242;11.654;2023-02-12T00:53:58;98113.56;;;3.80;100.00
62510;BME280;48558;48.242;11.654;2023-02-12T00:58:11;98122.69;;;3.94;100.00
62510;BME280;48558;48.242;11.654;2023-02-12T01:02:23;98106.97;;;3.84;100.00
62510;BME280;48558;48.242;11.654;2023-02-12T01:06:36;98117.94;;;3.88;100.00
62510;BME280;48558;48.242;11.654;2023-02-12T01:10:56;98123.78;;;3.86;100.00
62510;BME280;48558;48.242;11.654;2023-02-12T01:15:11;98137.09;;;3.91;100.00
62510;BME280;48558;48.242;11.654;2023-02-12T01:19:26;98130.09;;;3.94;100.00
62510;BME280;48558;48.242;11.654;2023-02-12T01:23:40;98124.69;;;3.97;100.00
62510;BME280;48558;48.242;11.654;2023-02-12T01:27:53;98130.06;;;3.90;100.00
62510;BME280;48558;48.242;11.654;2023-02-12T01:32:05;98128.00;;;3.80;100.00
62510;BME280;48558;48.242;11.654;2023-02-12T01:36:29;98127.66;;;3.85;100.00
62510;BME280;48558;48.242;11.654;2023-02-12T01:40:42;98124.19;;;3.88;100.00
62510;BME280;48558;48.242;11.654;2023-02-12T01:49:30;98118.91;;;3.69;100.00
62510;BME280;48558;48.242;11.654;2023-02-12T01:53:51;98124.53;;;3.50;100.00
62510;BME280;48558;48.242;11.654;2023-02-12T01:58:06;98122.75;;;3.35;100.00
62510;BME280;48558;48.242;11.654;2023-02-12T02:02:21;98113.03;;;3.37;100.00
62510;BME280;48558;48.242;11.654;2023-02-12T02:06:38;98121.84;;;3.24;100.00
62510;BME280;48558;48.242;11.654;2023-02-12T02:11:02;98121.94;;;3.31;100.00
62510;BME280;48558;48.242;11.654;2023-02-12T02:15:35;98106.81;;;3.37;100.00
62510;BME280;48558;48.242;11.654;2023-02-12T02:30:13;98102.56;;;3.10;100.00
62510;BME280;48558;48.242;11.654;2023-02-12T02:34:35;98092.16;;;3.22;100.00
62510;BME280;48558;48.242;11.654;2023-02-12T02:39:27;98100.88;;;3.31;100.00
62510;BME280;48558;48.242;11.654;2023-02-12T02:43:48;98080.94;;;3.27;100.00
62510;BME280;48558;48.242;11.654;2023-02-12T02:48:08;98102.22;;;3.15;100.00
62510;BME280;48558;48.242;11.654;2023-02-12T02:52:52;98096.31;;;3.09;100.00
62510;BME280;48558;48.242;11.654;2023-02-12T02:57:15;98103.63;;;3.35;100.00
62510;BME280;48558;48.242;11.654;2023-02-12T03:01:41;98105.84;;;3.22;100.00
62510;BME280;48558;48.242;11.654;2023-02-12T03:06:09;98094.44;;;3.17;100.00
62510;BME280;48558;48.242;11.654;2023-02-12T03:10:39;98116.13;;;3.32;100.00
62510;BME280;48558;48.242;11.654;2023-02-12T03:15:08;98101.84;;;3.16;100.00
62510;BME280;48558;48.242;11.654;2023-02-12T03:19:34;98115.44;;;3.13;100.00
62510;BME280;48558;48.242;11.654;2023-02-12T03:24:00;98109.56;;;3.11;100.00
62510;BME280;48558;48.242;11.654;2023-02-12T03:28:19;98108.09;;;3.17;100.00
62510;BME280;48558;48.242;11.654;2023-02-12T03:33:17;98122.03;;;3.08;100.00
62510;BME280;48558;48.242;11.654;2023-02-12T03:37:37;98117.34;;;3.09;100.00
62510;BME280;48558;48.242;11.654;2023-02-12T03:42:09;98118.56;;;3.41;100.00
62510;BME280;48558;48.242;11.654;2023-02-12T03:46:40;98115.03;;;3.11;100.00
62510;BME280;48558;48.242;11.654;2023-02-12T03:51:15;98115.84;;;3.11;100.00
62510;BME280;48558;48.242;11.654;2023-02-12T03:55:32;98129.09;;;3.13;100.00
62510;BME280;48558;48.242;11.654;2023-02-12T03:59:48;98125.97;;;3.11;100.00
62510;BME280;48558;48.242;11.654;2023-02-12T04:04:03;98122.41;;;3.07;100.00
62510;BME280;48558;48.242;11.654;2023-02-12T04:08:17;98127.34;;;2.98;100.00
62510;BME280;48558;48.242;11.654;2023-02-12T04:16:47;98120.69;;;2.95;100.00
62510;BME280;48558;48.242;11.654;2023-02-12T04:26:01;98141.56;;;2.84;100.00
62510;BME280;48558;48.242;11.654;2023-02-12T04:30:31;98144.31;;;2.84;100.00
62510;BME280;48558;48.242;11.654;2023-02-12T04:39:35;98148.13;;;3.06;100.00
62510;BME280;48558;48.242;11.654;2023-02-12T04:44:15;98154.16;;;3.18;100.00
62510;BME280;48558;48.242;11.654;2023-02-12T04:48:47;98157.78;;;3.00;100.00
62510;BME280;48558;48.242;11.654;2023-02-12T04:53:03;98157.63;;;3.15;100.00
62510;BME280;48558;48.242;11.654;2023-02-12T04:57:16;98150.41;;;3.00;100.00
62510;BME280;48558;48.242;11.654;2023-02-12T05:01:28;98157.19;;;3.10;100.00
62510;BME280;48558;48.242;11.654;2023-02-12T05:05:41;98151.00;;;2.90;100.00
62510;BME280;48558;48.242;11.654;2023-02-12T05:09:54;98152.94;;;2.89;100.00
62510;BME280;48558;48.242;11.654;2023-02-12T05:14:06;98161.59;;;2.92;100.00
62510;BME280;48558;48.242;11.654;2023-02-12T05:18:19;98175.91;;;3.11;100.00
62510;BME280;48558;48.242;11.654;2023-02-12T05:22:31;98185.53;;;3.02;100.00
62510;BME280;48558;48.242;11.654;2023-02-12T05:26:44;98179.00;;;2.83;100.00
62510;BME280;48558;48.242;11.654;2023-02-12T05:31:01;98188.59;;;2.74;100.00
62510;BME280;48558;48.242;11.654;2023-02-12T05:35:17;98182.66;;;2.68;100.00
62510;BME280;48558;48.242;11.654;2023-02-12T05:39:30;98196.78;;;2.74;100.00
62510;BME280;48558;48.242;11.654;2023-02-12T05:43:43;98197.09;;;2.69;100.00
62510;BME280;48558;48.242;11.654;2023-02-12T05:47:59;98187.75;;;2.70;100.00
62510;BME280;48558;48.242;11.654;2023-02-12T05:52:13;98191.09;;;2.60;100.00
62510;BME280;48558;48.242;11.654;2023-02-12T05:56:37;98196.66;;;2.67;100.00
62510;BME280;48558;48.242;11.654;2023-02-12T06:00:54;98173.44;;;2.54;100.00
62510;BME280;48558;48.242;11.654;2023-02-12T06:05:06;98188.69;;;2.55;100.00
62510;BME280;48558;48.242;11.654;2023-02-12T06:09:19;98199.75;;;2.43;100.00
62510;BME280;48558;48.242;11.654;2023-02-12T06:13:32;98194.72;;;2.45;100.00
62510;BME280;48558;48.242;11.654;2023-02-12T06:17:45;98206.44;;;2.45;100.00
62510;BME280;48558;48.242;11.654;2023-02-12T06:21:57;98211.22;;;2.52;100.00
62510;BME280;48558;48.242;11.654;2023-02-12T06:26:09;98202.06;;;2.41;100.00
62510;BME280;48558;48.242;11.654;2023-02-12T06:30:22;98202.03;;;2.37;100.00
62510;BME280;48558;48.242;11.654;2023-02-12T06:34:34;98206.28;;;2.57;100.00
62510;BME280;48558;48.242;11.654;2023-02-12T06:38:47;98212.63;;;2.65;100.00
62510;BME280;48558;48.242;11.654;2023-02-12T06:43:00;98218.81;;;2.62;100.00
62510;BME280;48558;48.242;11.654;2023-02-12T06:47:13;98227.00;;;2.62;100.00
62510;BME280;48558;48.242;11.654;2023-02-12T06:51:27;98224.06;;;2.51;100.00
62510;BME280;48558;48.242;11.654;2023-02-12T06:55:41;98237.56;;;2.63;100.00
62510;BME280;48558;48.242;11.654;2023-02-12T06:59:54;98231.31;;;2.63;100.00
62510;BME280;48558;48.242;11.654;2023-02-12T07:04:06;98228.22;;;2.64;100.00
62510;BME280;48558;48.242;11.654;2023-02-12T07:08:19;98231.50;;;2.73;100.00
62510;BME280;48558;48.242;11.654;2023-02-12T07:12:32;98234.81;;;2.86;100.00
62510;BME280;48558;48.242;11.654;2023-02-12T07:16:44;98226.22;;;2.84;100.00
62510;BME280;48558;48.242;11.654;2023-02-12T07:20:57;98226.56;;;3.05;100.00
62510;BME280;48558;48.242;11.654;2023-02-12T07:25:09;98225.88;;;3.12;100.00
62510;BME280;48558;48.242;11.654;2023-02-12T07:29:22;98225.66;;;3.24;100.00
62510;BME280;48558;48.242;11.654;2023-02-12T07:33:35;98225.03;;;3.34;100.00
62510;BME280;48558;48.242;11.654;2023-02-12T07:37:49;98214.44;;;3.58;100.00
62510;BME280;48558;48.242;11.654;2023-02-12T07:42:01;98217.31;;;3.69;100.00
62510;BME280;48558;48.242;11.654;2023-02-12T07:46:17;98223.63;;;3.73;100.00
62510;BME280;48558;48.242;11.654;2023-02-12T07:50:31;98239.69;;;3.78;100.00
62510;BME280;48558;48.242;11.654;2023-02-12T07:54:44;98228.63;;;3.97;100.00
62510;BME280;48558;48.242;11.654;2023-02-12T07:59:02;98218.97;;;4.07;100.00
62510;BME280;48558;48.242;11.654;2023-02-12T08:03:16;98233.47;;;4.11;100.00
62510;BME280;48558;48.242;11.654;2023-02-12T08:07:29;98235.19;;;4.26;100.00
62510;BME280;48558;48.242;11.654;2023-02-12T08:11:42;98237.06;;;4.55;100.00
62510;BME280;48558;48.242;11.654;2023-02-12T08:16:03;98234.03;;;4.64;100.00
62510;BME280;48558;48.242;11.654;2023-02-12T08:20:21;98218.91;;;4.77;100.00
62510;BME280;48558;48.242;11.654;2023-02-12T08:24:33;98217.66;;;4.71;100.00
62510;BME280;48558;48.242;11.654;2023-02-12T08:28:51;98228.06;;;4.95;100.00
62510;BME280;48558;48.242;11.654;2023-02-12T08:33:05;98219.06;;;4.94;100.00
62510;BME280;48558;48.242;11.654;2023-02-12T08:37:18;98211.22;;;4.93;100.00
62510;BME280;48558;48.242;11.654;2023-02-12T08:41:31;98217.38;;;5.30;100.00
62510;BME280;48558;48.242;11.654;2023-02-12T08:45:44;98206.09;;;5.42;100.00
62510;BME280;48558;48.242;11.654;2023-02-12T08:50:07;98214.66;;;5.37;100.00
62510;BME280;48558;48.242;11.654;2023-02-12T08:54:22;98217.97;;;5.60;100.00
62510;BME280;48558;48.242;11.654;2023-02-12T08:58:36;98210.50;;;5.61;100.00
62510;BME280;48558;48.242;11.654;2023-02-12T09:02:49;98222.25;;;5.61;100.00
62510;BME280;48558;48.242;11.654;2023-02-12T09:07:01;98218.31;;;5.55;100.00
62510;BME280;48558;48.242;11.654;2023-02-12T09:11:22;98217.50;;;5.51;100.00
62510;BME280;48558;48.242;11.654;2023-02-12T09:15:42;98221.53;;;5.75;100.00
62510;BME280;48558;48.242;11.654;2023-02-12T09:19:55;98225.31;;;6.21;100.00
62510;BME280;48558;48.242;11.654;2023-02-12T09:24:18;98225.78;;;6.59;100.00
62510;BME280;48558;48.242;11.654;2023-02-12T09:28:37;98229.31;;;6.48;100.00
62510;BME280;48558;48.242;11.654;2023-02-12T09:33:00;98209.31;;;6.59;100.00
62510;BME280;48558;48.242;11.654;2023-02-12T09:37:13;98233.25;;;6.55;100.00
62510;BME280;48558;48.242;11.654;2023-02-12T09:41:45;98227.41;;;7.34;100.00
62510;BME280;48558;48.242;11.654;2023-02-12T09:46:32;98213.97;;;7.71;100.00
62510;BME280;48558;48.242;11.654;2023-02-12T09:50:59;98212.84;;;7.54;100.00
62510;BME280;48558;48.242;11.654;2023-02-12T09:55:17;98217.13;;;7.66;100.00
62510;BME280;48558;48.242;11.654;2023-02-12T09:59:45;98224.47;;;8.04;100.00
62510;BME280;48558;48.242;11.654;2023-02-12T10:04:00;98214.22;;;8.12;100.00
62510;BME280;48558;48.242;11.654;2023-02-12T10:18:50;98234.47;;;9.15;100.00
62510;BME280;48558;48.242;11.654;2023-02-12T10:27:51;98227.41;;;8.55;100.00
62510;BME280;48558;48.242;11.654;2023-02-12T10:32:27;98212.09;;;9.06;100.00
62510;BME280;48558;48.242;11.654;2023-02-12T10:36:48;98225.19;;;9.43;100.00
62510;BME280;48558;48.242;11.654;2023-02-12T10:41:01;98223.94;;;9.03;100.00
62510;BME280;48558;48.242;11.654;2023-02-12T10:45:16;98186.59;;;8.91;100.00
62510;BME280;48558;48.242;11.654;2023-02-12T10:49:31;98217.94;;;9.93;100.00
62510;BME280;48558;48.242;11.654;2023-02-12T10:53:44;98222.97;;;9.68;100.00
62510;BME280;48558;48.242;11.654;2023-02-12T10:57:59;98222.53;;;10.06;100.00
62510;BME280;48558;48.242;11.654;2023-02-12T11:06:36;98189.22;;;10.21;100.00
62510;BME280;48558;48.242;11.654;2023-02-12T11:10:51;98206.44;;;10.32;100.00
62510;BME280;48558;48.242;11.654;2023-02-12T11:15:17;98200.59;;;10.56;100.00
62510;BME280;48558;48.242;11.654;2023-02-12T11:19:31;98198.63;;;11.07;100.00
62510;BME280;48558;48.242;11.654;2023-02-12T11:23:46;98196.94;;;10.63;100.00
62510;BME280;48558;48.242;11.654;2023-02-12T11:32:27;98198.47;;;11.17;100.00
62510;BME280;48558;48.242;11.654;2023-02-12T11:36:48;98196.25;;;11.55;100.00
62510;BME280;48558;48.242;11.654;2023-02-12T11:41:06;98194.38;;;11.48;100.00
62510;BME280;48558;48.242;11.654;2023-02-12T11:45:33;98193.91;;;11.30;100.00
62510;BME280;48558;48.242;11.654;2023-02-12T11:54:41;98191.41;;;11.59;98.98
62510;BME280;48558;48.242;11.654;2023-02-12T11:59:10;98189.69;;;10.72;100.00
62510;BME280;48558;48.242;11.654;2023-02-12T12:08:49;98182.97;;;8.46;100.00
62510;BME280;48558;48.242;11.654;2023-02-12T12:13:26;98168.88;;;9.70;100.00
62510;BME280;48558;48.242;11.654;2023-02-12T12:17:48;98175.94;;;8.97;100.00
62510;BME280;48558;48.242;11.654;2023-02-12T12:27:02;98181.28;;;8.66;100.00
62510;BME280;48558;48.242;11.654;2023-02-12T12:31:46;98168.69;;;7.89;100.00
62510;BME280;48558;48.242;11.654;2023-02-12T12:41:38;98157.13;;;10.57;100.00
62510;BME280;48558;48.242;11.654;2023-02-12T12:46:32;98145.94;;;10.41;100.00
62510;BME280;48558;48.242;11.654;2023-02-12T13:00:34;98163.53;;;11.70;100.00
62510;BME280;48558;48.242;11.654;2023-02-12T13:23:30;98159.81;;;7.40;100.00
62510;BME280;48558;48.242;11.654;2023-02-12T13:27:50;98162.00;;;7.90;100.00
62510;BME280;48558;48.242;11.654;2023-02-12T13:32:14;98165.28;;;7.57;100.00
62510;BME280;48558;48.242;11.654;2023-02-12T13:36:33;98169.28;;;7.17;100.00
62510;BME280;48558;48.242;11.654;2023-02-12T13:40:47;98162.22;;;7.06;100.00
62510;BME280;48558;48.242;11.654;2023-02-12T13:45:13;98156.88;;;8.65;100.00
62510;BME280;48558;48.242;11.654;2023-02-12T13:58:37;98145.41;;;9.18;100.00
62510;BME280;48558;48.242;11.654;2023-02-12T14:02:51;98142.09;;;8.38;100.00
62510;BME280;48558;48.242;11.654;2023-02-12T14:07:09;98132.94;;;7.82;100.00
62510;BME280;48558;48.242;11.654;2023-02-12T14:11:24;98146.38;;;8.49;100.00
62510;BME280;48558;48.242;11.654;2023-02-12T14:15:43;98146.75;;;8.99;100.00
62510;BME280;48558;48.242;11.654;2023-02-12T14:20:23;98135.66;;;9.47;100.00
62510;BME280;48558;48.242;11.654;2023-02-12T14:24:52;98133.22;;;10.47;100.00
62510;BME280;48558;48.242;11.654;2023-02-12T14:29:15;98146.41;;;9.72;100.00
62510;BME280;48558;48.242;11.654;2023-02-12T14:33:32;98140.97;;;9.27;100.00
62510;BME280;48558;48.242;11.654;2023-02-12T14:37:44;98146.47;;;8.87;100.00
62510;BME280;48558;48.242;11.654;2023-02-12T14:50:41;98130.56;;;7.88;100.00
62510;BME280;48558;48.242;11.654;2023-02-12T14:55:04;98135.03;;;7.57;100.00
62510;BME280;48558;48.242;11.654;2023-02-12T14:59:21;98127.97;;;7.53;100.00
62510;BME280;48558;48.242;11.654;2023-02-12T15:03:50;98128.88;;;8.12;100.00
62510;BME280;48558;48.242;11.654;2023-02-12T15:08:11;98136.38;;;8.04;100.00
62510;BME280;48558;48.242;11.654;2023-02-12T15:12:34;98125.94;;;7.64;100.00
62510;BME280;48558;48.242;11.654;2023-02-12T15:16:54;98129.91;;;7.52;100.00
62510;BME280;48558;48.242;11.654;2023-02-12T15:21:24;98123.56;;;7.69;100.00
62510;BME280;48558;48.242;11.654;2023-02-12T15:25:38;98123.38;;;6.86;100.00
62510;BME280;48558;48.242;11.654;2023-02-12T15:29:52;98130.81;;;6.43;100.00
62510;BME280;48558;48.242;11.654;2023-02-12T15:34:19;98127.25;;;6.15;100.00
62510;BME280;48558;48.242;11.654;2023-02-12T15:38:37;98124.88;;;5.99;100.00
62510;BME280;48558;48.242;11.654;2023-02-12T15:47:13;98128.00;;;5.94;100.00
62510;BME280;48558;48.242;11.654;2023-02-12T15:51:33;98129.09;;;5.82;100.00
62510;BME280;48558;48.242;11.654;2023-02-12T15:55:48;98124.34;;;5.72;100.00
62510;BME280;48558;48.242;11.654;2023-02-12T16:00:08;98119.56;;;5.48;100.00
62510;BME280;48558;48.242;11.654;2023-02-12T16:04:23;98114.59;;;4.99;100.00
62510;BME280;48558;48.242;11.654;2023-02-12T16:08:54;98123.97;;;4.98;100.00
62510;BME280;48558;48.242;11.654;2023-02-12T16:13:15;98137.69;;;4.98;100.00
62510;BME280;48558;48.242;11.654;2023-02-12T16:17:32;98116.97;;;5.04;100.00
62510;BME280;48558;48.242;11.654;2023-02-12T16:21:50;98130.53;;;4.87;100.00
62510;BME280;48558;48.242;11.654;2023-02-12T16:26:04;98127.69;;;4.73;100.00
62510;BME280;48558;48.242;11.654;2023-02-12T16:30:33;98124.81;;;4.55;100.00
62510;BME280;48558;48.242;11.654;2023-02-12T16:34:58;98134.03;;;4.36;100.00
62510;BME280;48558;48.242;11.654;2023-02-12T16:48:20;98142.94;;;3.86;100.00
62510;BME280;48558;48.242;11.654;2023-02-12T16:52:39;98156.63;;;3.90;100.00
62510;BME280;48558;48.242;11.654;2023-02-12T16:56:53;98151.69;;;3.69;100.00
62510;BME280;48558;48.242;11.654;2023-02-12T17:01:05;98144.91;;;3.56;100.00
62510;BME280;48558;48.242;11.654;2023-02-12T17:05:28;98156.34;;;3.35;100.00
62510;BME280;48558;48.242;11.654;2023-02-12T17:09:41;98154.09;;;3.41;100.00
62510;BME280;48558;48.242;11.654;2023-02-12T17:13:57;98147.91;;;3.18;100.00
62510;BME280;48558;48.242;11.654;2023-02-12T17:18:10;98157.28;;;2.90;100.00
62510;BME280;48558;48.242;11.654;2023-02-12T17:22:25;98166.94;;;3.11;100.00
62510;BME280;48558;48.242;11.654;2023-02-12T17:26:38;98157.22;;;2.87;100.00
62510;BME280;48558;48.242;11.654;2023-02-12T17:30:52;98160.03;;;2.94;100.00
62510;BME280;48558;48.242;11.654;2023-02-12T17:35:05;98169.78;;;2.92;100.00
62510;BME280;48558;48.242;11.654;2023-02-12T17:39:18;98176.69;;;2.85;100.00
62510;BME280;48558;48.242;11.654;2023-02-12T17:43:31;98169.84;;;2.72;100.00
62510;BME280;48558;48.242;11.654;2023-02-12T17:47:43;98156.66;;;2.52;100.00
62510;BME280;48558;48.242;11.654;2023-02-12T17:51:56;98151.44;;;2.43;100.00
62510;BME280;48558;48.242;11.654;2023-02-12T17:56:13;98178.06;;;2.50;100.00
62510;BME280;48558;48.242;11.654;2023-02-12T18:00:27;98169.41;;;2.44;100.00
62510;BME280;48558;48.242;11.654;2023-02-12T18:04:41;98165.09;;;2.43;100.00
62510;BME280;48558;48.242;11.654;2023-02-12T18:08:55;98178.59;;;2.36;100.00
62510;BME280;48558;48.242;11.654;2023-02-12T18:13:09;98179.03;;;2.38;100.00
62510;BME280;48558;48.242;11.654;2023-02-12T18:17:21;98178.19;;;2.34;100.00
62510;BME280;48558;48.242;11.654;2023-02-12T18:21:34;98187.50;;;2.33;100.00
62510;BME280;48558;48.242;11.654;2023-02-12T18:25:55;98177.88;;;2.39;100.00
62510;BME280;48558;48.242;11.654;2023-02-12T18:30:08;98181.75;;;2.38;100.00
62510;BME280;48558;48.242;11.654;2023-02-12T18:34:21;98174.25;;;2.54;100.00
62510;BME280;48558;48.242;11.654;2023-02-12T18:38:36;98171.09;;;2.52;100.00
62510;BME280;48558;48.242;11.654;2023-02-12T18:42:50;98175.72;;;2.48;100.00
62510;BME280;48558;48.242;11.654;2023-02-12T18:47:03;98179.03;;;2.61;100.00
62510;BME280;48558;48.242;11.654;2023-02-12T18:51:27;98176.00;;;2.43;100.00
62510;BME280;48558;48.242;11.654;2023-02-12T18:55:42;98166.00;;;2.28;100.00
62510;BME280;48558;48.242;11.654;2023-02-12T19:00:05;98173.94;;;2.37;100.00
62510;BME280;48558;48.242;11.654;2023-02-12T19:04:19;98166.72;;;2.48;100.00
62510;BME280;48558;48.242;11.654;2023-02-12T19:08:32;98158.78;;;2.39;100.00
62510;BME280;48558;48.242;11.654;2023-02-12T19:12:45;98158.53;;;2.25;100.00
62510;BME280;48558;48.242;11.654;2023-02-12T19:16:58;98171.50;;;2.54;100.00
62510;BME280;48558;48.242;11.654;2023-02-12T19:21:12;98176.38;;;2.42;100.00
62510;BME280;48558;48.242;11.654;2023-02-12T19:25:25;98160.88;;;2.27;100.00
62510;BME280;48558;48.242;11.654;2023-02-12T19:29:38;98147.19;;;2.23;100.00
62510;BME280;48558;48.242;11.654;2023-02-12T19:33:54;98164.13;;;2.32;100.00
62510;BME280;48558;48.242;11.654;2023-02-12T19:38:12;98158.28;;;2.34;100.00
62510;BME280;48558;48.242;11.654;2023-02-12T19:42:24;98149.50;;;2.21;100.00
62510;BME280;48558;48.242;11.654;2023-02-12T19:46:37;98176.13;;;2.28;100.00
62510;BME280;48558;48.242;11.654;2023-02-12T19:50:51;98167.28;;;2.34;100.00
62510;BME280;48558;48.242;11.654;2023-02-12T19:55:04;98163.88;;;2.41;100.00
62510;BME280;48558;48.242;11.654;2023-02-12T19:59:19;98164.72;;;2.45;100.00
62510;BME280;48558;48.242;11.654;2023-02-12T20:03:32;98165.13;;;2.47;100.00
62510;BME280;48558;48.242;11.654;2023-02-12T20:07:45;98168.78;;;2.32;100.00
62510;BME280;48558;48.242;11.654;2023-02-12T20:11:57;98155.63;;;2.37;100.00
62510;BME280;48558;48.242;11.654;2023-02-12T20:16:13;98164.13;;;2.32;100.00
62510;BME280;48558;48.242;11.654;2023-02-12T20:20:27;98157.31;;;2.23;100.00
62510;BME280;48558;48.242;11.654;2023-02-12T20:24:39;98155.53;;;2.11;100.00
62510;BME280;48558;48.242;11.654;2023-02-12T20:28:52;98170.94;;;2.00;100.00
62510;BME280;48558;48.242;11.654;2023-02-12T20:33:05;98167.91;;;2.05;100.00
62510;BME280;48558;48.242;11.654;2023-02-12T20:37:18;98174.88;;;2.02;100.00
62510;BME280;48558;48.242;11.654;2023-02-12T20:41:31;98180.00;;;1.85;100.00
62510;BME280;48558;48.242;11.654;2023-02-12T20:45:43;98163.63;;;1.85;100.00
62510;BME280;48558;48.242;11.654;2023-02-12T20:49:56;98167.78;;;1.79;100.00
62510;BME280;48558;48.242;11.654;2023-02-12T20:54:09;98168.38;;;1.69;100.00
62510;BME280;48558;48.242;11.654;2023-02-12T20:58:22;98163.88;;;1.76;100.00
62510;BME280;48558;48.242;11.654;2023-02-12T21:02:35;98159.56;;;1.75;100.00
62510;BME280;48558;48.242;11.654;2023-02-12T21:06:58;98180.69;;;1.82;100.00
62510;BME280;48558;48.242;11.654;2023-02-12T21:11:17;98176.97;;;1.90;100.00
62510;BME280;48558;48.242;11.654;2023-02-12T21:15:31;98181.56;;;1.86;100.00
62510;BME280;48558;48.242;11.654;2023-02-12T21:19:43;98175.53;;;1.96;100.00
62510;BME280;48558;48.242;11.654;2023-02-12T21:23:57;98178.53;;;1.91;100.00
62510;BME280;48558;48.242;11.654;2023-02-12T21:28:11;98181.69;;;1.93;100.00
62510;BME280;48558;48.242;11.654;2023-02-12T21:32:24;98163.28;;;1.86;100.00
62510;BME280;48558;48.242;11.654;2023-02-12T21:36:38;98182.13;;;1.95;100.00
62510;BME280;48558;48.242;11.654;2023-02-12T21:40:52;98176.03;;;1.82;100.00
62510;BME280;48558;48.242;11.654;2023-02-12T21:45:05;98187.50;;;1.91;100.00
62510;BME280;48558;48.242;11.654;2023-02-12T21:49:18;98189.59;;;1.98;100.00
62510;BME280;48558;48.242;11.654;2023-02-12T21:53:39;98191.38;;;1.90;100.00
62510;BME280;48558;48.242;11.654;2023-02-12T21:57:52;98184.56;;;2.00;100.00
62510;BME280;48558;48.242;11.654;2023-02-12T22:02:05;98187.28;;;2.00;100.00
62510;BME280;48558;48.242;11.654;2023-02-12T22:06:21;98194.97;;;1.75;100.00
62510;BME280;48558;48.242;11.654;2023-02-12T22:10:35;98194.69;;;1.80;100.00
62510;BME280;48558;48.242;11.654;2023-02-12T22:14:48;98200.22;;;1.84;100.00
62510;BME280;48558;48.242;11.654;2023-02-12T22:19:02;98202.59;;;1.85;100.00
62510;BME280;48558;48.242;11.654;2023-02-12T22:23:16;98186.16;;;1.82;100.00
62510;BME280;48558;48.242;11.654;2023-02-12T22:27:32;98195.91;;;1.83;100.00
62510;BME280;48558;48.242;11.654;2023-02-12T22:31:45;98199.34;;;1.80;100.00
62510;BME280;48558;48.242;11.654;2023-02-12T22:36:03;98200.63;;;1.86;100.00
62510;BME280;48558;48.242;11.654;2023-02-12T22:40:19;98192.41;;;1.82;100.00
62510;BME280;48558;48.242;11.654;2023-02-12T22:44:36;98190.31;;;1.76;100.00
62510;BME280;48558;48.242;11.654;2023-02-12T22:48:57;98202.59;;;1.85;100.00
62510;BME280;48558;48.242;11.654;2023-02-12T22:53:10;98187.88;;;1.71;100.00
62510;BME280;48558;48.242;11.654;2023-02-12T22:57:23;98186.72;;;1.91;100.00
62510;BME280;48558;48.242;11.654;2023-02-12T23:01:36;98183.72;;;1.77;100.00
62510;BME280;48558;48.242;11.654;2023-02-12T23:05:52;98186.75;;;1.72;100.00
62510;BME280;48558;48.242;11.654;2023-02-12T23:10:05;98202.72;;;1.73;100.00
62510;BME280;48558;48.242;11.654;2023-02-12T23:14:18;98188.81;;;1.78;100.00
62510;BME280;48558;48.242;11.654;2023-02-12T23:18:31;98198.22;;;1.81;100.00
62510;BME280;48558;48.242;11.654;2023-02-12T23:22:44;98184.84;;;1.57;100.00
62510;BME280;48558;48.242;11.654;2023-02-12T23:26:56;98193.28;;;1.67;100.00
62510;BME280;48558;48.242;11.654;2023-02-12T23:31:08;98186.00;;;1.75;100.00
62510;BME280;48558;48.242;11.654;2023-02-12T23:35:27;98189.75;;;1.67;100.00
62510;BME280;48558;48.242;11.654;2023-02-12T23:39:39;98176.84;;;1.44;100.00
62510;BME280;48558;48.242;11.654;2023-02-12T23:43:52;98186.03;;;1.56;100.00
62510;BME280;48558;48.242;11.654;2023-02-12T23:48:04;98177.28;;;1.47;100.00
62510;BME280;48558;48.242;11.654;2023-02-12T23:52:27;98184.44;;;1.35;100.00
62510;BME280;48558;48.242;11.654;2023-02-12T23:56:40;98177.81;;;1.17;100.00
